Nisshoumaru — JD3093 — position and weather

sailwx.info

Track history (hours):
 
Tides and Currents Weather Stations Pressure Air Temp Water Temp Dewpoint Dewpoint Depression Visibility Wind Speed Wind Dir Waves Ship Positions

Nisshoumaru

Last reported at 2016-Jun-29 22:31 UTC. Time now 2016-Jun-30 17:48 UTC.
Position N 34°41' E 134°49'.

Length 76 m; draft 4 m.

Type: Cargo ship. MMSI: 431001549.

Date/timePositionNaut miles runAvg speedWind from/ knotsBaromVisibWave heightAir tempDewpointWater temp
2016-Jun-29 22:31N 34°41' E 134°49'0 0.0
2016-Jun-29 21:30N 34°41' E 134°49'0 0.0
2016-Jun-29 19:15N 34°41' E 134°49'911.9
2016-Jun-29 18:33N 34°38' E 134°59'1010.0
2016-Jun-29 17:32N 34°28' E 135°03'1313.1
2016-Jun-29 16:33N 34°16' E 134°59'237 9.8
2016-Jun-28 16:28N 35°06' E 139°41'1111.7
2016-Jun-28 15:33N 35°16' E 139°45'7 7.0
2016-Jun-28 14:33N 35°22' E 139°40'0 0.0
2016-Jun-28 13:34N 35°22' E 139°41'0 0.0
2016-Jun-28 12:34N 35°22' E 139°41'0 0.0
2016-Jun-28 11:34N 35°22' E 139°41'0 0.1
2016-Jun-28 10:34N 35°22' E 139°40'0 0.0
2016-Jun-28 09:34N 35°22' E 139°40'0 0.0
2016-Jun-28 08:33N 35°22' E 139°40'6 5.6
2016-Jun-28 07:33N 35°27' E 139°43'2 2.0
2016-Jun-28 06:34N 35°29' E 139°42'3 1.3
2016-Jun-28 04:34N 35°27' E 139°42'0 0.0
2016-Jun-28 03:34N 35°27' E 139°42'0 0.0
2016-Jun-28 02:34N 35°27' E 139°42'0 0.0
2016-Jun-28 01:34N 35°27' E 139°42'0 0.0
2016-Jun-28 00:33N 35°27' E 139°42'0 0.0
2016-Jun-27 23:34N 35°27' E 139°42'0 0.0
2016-Jun-27 22:34N 35°27' E 139°42'0 0.0
2016-Jun-27 21:34N 35°27' E 139°42'0 0.0
2016-Jun-27 20:34N 35°27' E 139°42'0 0.0
2016-Jun-27 19:34N 35°27' E 139°42'0 0.0
2016-Jun-27 18:34N 35°27' E 139°42'0 0.0
2016-Jun-27 17:34N 35°27' E 139°42'0 0.1
2016-Jun-27 16:34N 35°27' E 139°42'0 0.0
2016-Jun-27 15:34N 35°27' E 139°42'0 0.0
2016-Jun-27 14:33N 35°27' E 139°42'0 0.0
2016-Jun-27 13:34N 35°27' E 139°42'0 0.1
2016-Jun-27 12:33N 35°27' E 139°42'0 0.0
2016-Jun-27 11:34N 35°27' E 139°42'0 0.0
2016-Jun-27 10:34N 35°27' E 139°42'0 0.0
2016-Jun-27 09:34N 35°27' E 139°42'0 0.0
2016-Jun-27 08:34N 35°27' E 139°42'0 0.0
2016-Jun-27 07:34N 35°27' E 139°42'0 0.0
2016-Jun-27 06:34N 35°27' E 139°42'0 0.0
2016-Jun-27 05:34N 35°27' E 139°42'0 0.0
2016-Jun-27 04:34N 35°27' E 139°42'0 0.0
2016-Jun-27 03:34N 35°27' E 139°42'0 0.0
2016-Jun-27 02:34N 35°27' E 139°42'0 0.0
2016-Jun-27 01:34N 35°27' E 139°42'0 0.0
2016-Jun-27 00:34N 35°27' E 139°42'0 0.0
2016-Jun-26 23:34N 35°27' E 139°42'0 0.0
2016-Jun-26 22:33N 35°27' E 139°42'0 0.0
2016-Jun-26 21:34N 35°27' E 139°42'0 0.0
2016-Jun-26 20:34N 35°27' E 139°42'0 0.0
2016-Jun-26 19:34N 35°27' E 139°42'0 0.1
2016-Jun-26 18:34N 35°27' E 139°42'0 0.0
2016-Jun-26 17:34N 35°27' E 139°42'0 0.0
2016-Jun-26 16:34N 35°27' E 139°42'0 0.0
2016-Jun-26 15:34N 35°27' E 139°42'0 0.0
2016-Jun-26 14:34N 35°27' E 139°42'0 0.0
2016-Jun-26 13:33N 35°27' E 139°42'0 0.0
2016-Jun-26 12:34N 35°27' E 139°42'0 0.0
2016-Jun-26 11:34N 35°27' E 139°42'0 0.0
2016-Jun-26 10:34N 35°27' E 139°42'0 0.0
2016-Jun-26 09:34N 35°27' E 139°42'0 0.0
2016-Jun-26 08:34N 35°27' E 139°42'0 0.0
2016-Jun-26 07:34N 35°27' E 139°42'0 0.0
2016-Jun-26 06:34N 35°27' E 139°42'0 0.0
2016-Jun-26 05:34N 35°27' E 139°42'0 0.0
2016-Jun-26 04:34N 35°27' E 139°42'0 0.0
2016-Jun-26 03:34N 35°27' E 139°42'0 0.0
2016-Jun-26 02:33N 35°27' E 139°42'0 0.0
2016-Jun-26 01:33N 35°27' E 139°42'0 0.0
2016-Jun-26 00:34N 35°27' E 139°42'2 2.4
2016-Jun-25 23:34N 35°27' E 139°39'0 0.0
2016-Jun-25 22:34N 35°27' E 139°39'0 0.0
2016-Jun-25 21:34N 35°27' E 139°39'0 0.0
2016-Jun-25 20:34N 35°27' E 139°39'0 0.0
2016-Jun-25 19:34N 35°27' E 139°39'0 0.0
2016-Jun-25 18:34N 35°27' E 139°39'0 0.0
2016-Jun-25 17:34N 35°27' E 139°39'0 0.0
2016-Jun-25 16:34N 35°27' E 139°39'0 0.0
2016-Jun-25 15:34N 35°27' E 139°39'0 0.0
2016-Jun-25 14:34N 35°27' E 139°39'0 0.0
2016-Jun-25 13:34N 35°27' E 139°39'0 0.0
2016-Jun-25 12:34N 35°27' E 139°39'0 0.0
2016-Jun-25 11:34N 35°27' E 139°39'0 0.0
2016-Jun-25 10:34N 35°27' E 139°39'0 0.0
2016-Jun-25 09:34N 35°27' E 139°39'0 0.0
2016-Jun-25 08:34N 35°27' E 139°39'0 0.0
2016-Jun-25 07:34N 35°27' E 139°39'0 0.0
2016-Jun-25 06:34N 35°27' E 139°39'0 0.0
2016-Jun-25 05:34N 35°27' E 139°39'0 0.0
2016-Jun-25 04:34N 35°27' E 139°39'0 0.0
2016-Jun-25 03:34N 35°27' E 139°39'0 0.0
2016-Jun-25 02:33N 35°27' E 139°39'0 0.0
2016-Jun-25 01:34N 35°27' E 139°39'2 2.2
2016-Jun-25 00:33N 35°26' E 139°42'0 0.0
2016-Jun-24 23:33N 35°26' E 139°42'0 0.1
2016-Jun-24 22:33N 35°26' E 139°42'0 0.0
2016-Jun-24 21:34N 35°26' E 139°42'0 0.0
2016-Jun-24 20:33N 35°26' E 139°42'0 0.0
2016-Jun-24 19:33N 35°26' E 139°42'0 0.0
2016-Jun-24 18:33N 35°26' E 139°42'0 0.0
2016-Jun-24 17:34N 35°26' E 139°42'0 0.0
2016-Jun-24 16:33N 35°26' E 139°42'0 0.0
2016-Jun-24 15:33N 35°26' E 139°42'0 0.0
2016-Jun-24 14:33N 35°26' E 139°42'0 0.1
2016-Jun-24 13:33N 35°26' E 139°42'0 0.0
2016-Jun-24 12:33N 35°26' E 139°42'0 0.0
2016-Jun-24 11:33N 35°26' E 139°42'0 0.0
2016-Jun-24 10:33N 35°26' E 139°42'3 3.1
2016-Jun-24 09:33N 35°27' E 139°45'1010.2
2016-Jun-24 08:33N 35°37' E 139°49'1 1.4
2016-Jun-24 07:33N 35°37' E 139°48'0 0.0
2016-Jun-24 06:33N 35°37' E 139°48'0 0.0
2016-Jun-24 04:33N 35°37' E 139°48'0 0.0
2016-Jun-24 03:33N 35°37' E 139°48'0 0.0
2016-Jun-24 02:33N 35°37' E 139°48'0 0.0
2016-Jun-24 01:33N 35°37' E 139°48'0 0.0
2016-Jun-24 00:33N 35°37' E 139°48'0 0.0
2016-Jun-23 23:33N 35°37' E 139°48'0 0.0
2016-Jun-23 22:33N 35°37' E 139°48'0 0.0
2016-Jun-23 21:33N 35°37' E 139°48'0 0.0
2016-Jun-23 20:33N 35°37' E 139°48'0 0.0
2016-Jun-23 19:33N 35°37' E 139°48'0 0.0
2016-Jun-23 18:33N 35°37' E 139°48'0 0.0
2016-Jun-23 17:33N 35°37' E 139°48'0 0.0
2016-Jun-23 16:33N 35°37' E 139°48'0 0.0
2016-Jun-23 15:33N 35°37' E 139°48'0 0.0
2016-Jun-23 14:33N 35°37' E 139°48'0 0.0
2016-Jun-23 13:33N 35°37' E 139°48'0 0.0
2016-Jun-23 12:33N 35°37' E 139°48'0 0.0
2016-Jun-23 11:33N 35°37' E 139°48'0 0.0
2016-Jun-23 10:33N 35°37' E 139°48'0 0.0
2016-Jun-23 09:33N 35°37' E 139°48'0 0.0
2016-Jun-23 08:33N 35°37' E 139°48'0 0.0
2016-Jun-23 07:33N 35°37' E 139°48'0 0.0
2016-Jun-23 05:33N 35°37' E 139°48'0 0.0
2016-Jun-23 04:33N 35°37' E 139°48'0 0.4
2016-Jun-23 03:34N 35°37' E 139°48'1010.0
2016-Jun-23 02:33N 35°27' E 139°50'1110.7
2016-Jun-23 01:33N 35°17' E 139°46'1211.4
2016-Jun-23 00:32N 35°05' E 139°44'  
Track history (hours):
 
Tides and Currents Weather Stations Pressure Air Temp Water Temp Dewpoint Dewpoint Depression Visibility Wind Speed Wind Dir Waves Ship Positions

Nisshoumaru

Last reported at 2016-Jun-29 22:31 UTC. Time now 2016-Jun-30 17:48 UTC.
Position N 34°41' E 134°49'.

Length 76 m; draft 4 m.

Type: Cargo ship. MMSI: 431001549.

Date/timePositionNaut miles runAvg speedWind from/ knotsBaromVisibWave heightAir tempDewpointWater temp
2016-Jun-29 22:31N 34°41' E 134°49'0 0.0
2016-Jun-29 21:30N 34°41' E 134°49'0 0.0
2016-Jun-29 19:15N 34°41' E 134°49'911.9
2016-Jun-29 18:33N 34°38' E 134°59'1010.0
2016-Jun-29 17:32N 34°28' E 135°03'1313.1
2016-Jun-29 16:33N 34°16' E 134°59'237 9.8
2016-Jun-28 16:28N 35°06' E 139°41'1111.7
2016-Jun-28 15:33N 35°16' E 139°45'7 7.0
2016-Jun-28 14:33N 35°22' E 139°40'0 0.0
2016-Jun-28 13:34N 35°22' E 139°41'0 0.0
2016-Jun-28 12:34N 35°22' E 139°41'0 0.0
2016-Jun-28 11:34N 35°22' E 139°41'0 0.1
2016-Jun-28 10:34N 35°22' E 139°40'0 0.0
2016-Jun-28 09:34N 35°22' E 139°40'0 0.0
2016-Jun-28 08:33N 35°22' E 139°40'6 5.6
2016-Jun-28 07:33N 35°27' E 139°43'2 2.0
2016-Jun-28 06:34N 35°29' E 139°42'3 1.3
2016-Jun-28 04:34N 35°27' E 139°42'0 0.0
2016-Jun-28 03:34N 35°27' E 139°42'0 0.0
2016-Jun-28 02:34N 35°27' E 139°42'0 0.0
2016-Jun-28 01:34N 35°27' E 139°42'0 0.0
2016-Jun-28 00:33N 35°27' E 139°42'0 0.0
2016-Jun-27 23:34N 35°27' E 139°42'0 0.0
2016-Jun-27 22:34N 35°27' E 139°42'0 0.0
2016-Jun-27 21:34N 35°27' E 139°42'0 0.0
2016-Jun-27 20:34N 35°27' E 139°42'0 0.0
2016-Jun-27 19:34N 35°27' E 139°42'0 0.0
2016-Jun-27 18:34N 35°27' E 139°42'0 0.0
2016-Jun-27 17:34N 35°27' E 139°42'0 0.1
2016-Jun-27 16:34N 35°27' E 139°42'0 0.0
2016-Jun-27 15:34N 35°27' E 139°42'0 0.0
2016-Jun-27 14:33N 35°27' E 139°42'0 0.0
2016-Jun-27 13:34N 35°27' E 139°42'0 0.1
2016-Jun-27 12:33N 35°27' E 139°42'0 0.0
2016-Jun-27 11:34N 35°27' E 139°42'0 0.0
2016-Jun-27 10:34N 35°27' E 139°42'0 0.0
2016-Jun-27 09:34N 35°27' E 139°42'0 0.0
2016-Jun-27 08:34N 35°27' E 139°42'0 0.0
2016-Jun-27 07:34N 35°27' E 139°42'0 0.0
2016-Jun-27 06:34N 35°27' E 139°42'0 0.0
2016-Jun-27 05:34N 35°27' E 139°42'0 0.0
2016-Jun-27 04:34N 35°27' E 139°42'0 0.0
2016-Jun-27 03:34N 35°27' E 139°42'0 0.0
2016-Jun-27 02:34N 35°27' E 139°42'0 0.0
2016-Jun-27 01:34N 35°27' E 139°42'0 0.0
2016-Jun-27 00:34N 35°27' E 139°42'0 0.0
2016-Jun-26 23:34N 35°27' E 139°42'0 0.0
2016-Jun-26 22:33N 35°27' E 139°42'0 0.0
2016-Jun-26 21:34N 35°27' E 139°42'0 0.0
2016-Jun-26 20:34N 35°27' E 139°42'0 0.0
2016-Jun-26 19:34N 35°27' E 139°42'0 0.1
2016-Jun-26 18:34N 35°27' E 139°42'0 0.0
2016-Jun-26 17:34N 35°27' E 139°42'0 0.0
2016-Jun-26 16:34N 35°27' E 139°42'0 0.0
2016-Jun-26 15:34N 35°27' E 139°42'0 0.0
2016-Jun-26 14:34N 35°27' E 139°42'0 0.0
2016-Jun-26 13:33N 35°27' E 139°42'0 0.0
2016-Jun-26 12:34N 35°27' E 139°42'0 0.0
2016-Jun-26 11:34N 35°27' E 139°42'0 0.0
2016-Jun-26 10:34N 35°27' E 139°42'0 0.0
2016-Jun-26 09:34N 35°27' E 139°42'0 0.0
2016-Jun-26 08:34N 35°27' E 139°42'0 0.0
2016-Jun-26 07:34N 35°27' E 139°42'0 0.0
2016-Jun-26 06:34N 35°27' E 139°42'0 0.0
2016-Jun-26 05:34N 35°27' E 139°42'0 0.0
2016-Jun-26 04:34N 35°27' E 139°42'0 0.0
2016-Jun-26 03:34N 35°27' E 139°42'0 0.0
2016-Jun-26 02:33N 35°27' E 139°42'0 0.0
2016-Jun-26 01:33N 35°27' E 139°42'0 0.0
2016-Jun-26 00:34N 35°27' E 139°42'2 2.4
2016-Jun-25 23:34N 35°27' E 139°39'0 0.0
2016-Jun-25 22:34N 35°27' E 139°39'0 0.0
2016-Jun-25 21:34N 35°27' E 139°39'0 0.0
2016-Jun-25 20:34N 35°27' E 139°39'0 0.0
2016-Jun-25 19:34N 35°27' E 139°39'0 0.0
2016-Jun-25 18:34N 35°27' E 139°39'0 0.0
2016-Jun-25 17:34N 35°27' E 139°39'0 0.0
2016-Jun-25 16:34N 35°27' E 139°39'0 0.0
2016-Jun-25 15:34N 35°27' E 139°39'0 0.0
2016-Jun-25 14:34N 35°27' E 139°39'0 0.0
2016-Jun-25 13:34N 35°27' E 139°39'0 0.0
2016-Jun-25 12:34N 35°27' E 139°39'0 0.0
2016-Jun-25 11:34N 35°27' E 139°39'0 0.0
2016-Jun-25 10:34N 35°27' E 139°39'0 0.0
2016-Jun-25 09:34N 35°27' E 139°39'0 0.0
2016-Jun-25 08:34N 35°27' E 139°39'0 0.0
2016-Jun-25 07:34N 35°27' E 139°39'0 0.0
2016-Jun-25 06:34N 35°27' E 139°39'0 0.0
2016-Jun-25 05:34N 35°27' E 139°39'0 0.0
2016-Jun-25 04:34N 35°27' E 139°39'0 0.0
2016-Jun-25 03:34N 35°27' E 139°39'0 0.0
2016-Jun-25 02:33N 35°27' E 139°39'0 0.0
2016-Jun-25 01:34N 35°27' E 139°39'2 2.2
2016-Jun-25 00:33N 35°26' E 139°42'0 0.0
2016-Jun-24 23:33N 35°26' E 139°42'0 0.1
2016-Jun-24 22:33N 35°26' E 139°42'0 0.0
2016-Jun-24 21:34N 35°26' E 139°42'0 0.0
2016-Jun-24 20:33N 35°26' E 139°42'0 0.0
2016-Jun-24 19:33N 35°26' E 139°42'0 0.0
2016-Jun-24 18:33N 35°26' E 139°42'0 0.0
2016-Jun-24 17:34N 35°26' E 139°42'0 0.0
2016-Jun-24 16:33N 35°26' E 139°42'0 0.0
2016-Jun-24 15:33N 35°26' E 139°42'0 0.0
2016-Jun-24 14:33N 35°26' E 139°42'0 0.1
2016-Jun-24 13:33N 35°26' E 139°42'0 0.0
2016-Jun-24 12:33N 35°26' E 139°42'0 0.0
2016-Jun-24 11:33N 35°26' E 139°42'0 0.0
2016-Jun-24 10:33N 35°26' E 139°42'3 3.1
2016-Jun-24 09:33N 35°27' E 139°45'1010.2
2016-Jun-24 08:33N 35°37' E 139°49'1 1.4
2016-Jun-24 07:33N 35°37' E 139°48'0 0.0
2016-Jun-24 06:33N 35°37' E 139°48'0 0.0
2016-Jun-24 04:33N 35°37' E 139°48'0 0.0
2016-Jun-24 03:33N 35°37' E 139°48'0 0.0
2016-Jun-24 02:33N 35°37' E 139°48'0 0.0
2016-Jun-24 01:33N 35°37' E 139°48'0 0.0
2016-Jun-24 00:33N 35°37' E 139°48'0 0.0
2016-Jun-23 23:33N 35°37' E 139°48'0 0.0
2016-Jun-23 22:33N 35°37' E 139°48'0 0.0
2016-Jun-23 21:33N 35°37' E 139°48'0 0.0
2016-Jun-23 20:33N 35°37' E 139°48'0 0.0
2016-Jun-23 19:33N 35°37' E 139°48'0 0.0
2016-Jun-23 18:33N 35°37' E 139°48'0 0.0
2016-Jun-23 17:33N 35°37' E 139°48'0 0.0
2016-Jun-23 16:33N 35°37' E 139°48'0 0.0
2016-Jun-23 15:33N 35°37' E 139°48'0 0.0
2016-Jun-23 14:33N 35°37' E 139°48'0 0.0
2016-Jun-23 13:33N 35°37' E 139°48'0 0.0
2016-Jun-23 12:33N 35°37' E 139°48'0 0.0
2016-Jun-23 11:33N 35°37' E 139°48'0 0.0
2016-Jun-23 10:33N 35°37' E 139°48'0 0.0
2016-Jun-23 09:33N 35°37' E 139°48'0 0.0
2016-Jun-23 08:33N 35°37' E 139°48'0 0.0
2016-Jun-23 07:33N 35°37' E 139°48'0 0.0
2016-Jun-23 05:33N 35°37' E 139°48'0 0.0
2016-Jun-23 04:33N 35°37' E 139°48'0 0.4
2016-Jun-23 03:34N 35°37' E 139°48'1010.0
2016-Jun-23 02:33N 35°27' E 139°50'1110.7
2016-Jun-23 01:33N 35°17' E 139°46'1211.4
2016-Jun-23 00:32N 35°05' E 139°44'  

Dump ship's entire track history